Time;durP1;ratioP1;P1;durP2;ratioP2;P2;SDS_P1;SDS_P2;PMS_P1;PMS_P2;Temp;Humidity;BMP_temperature;BMP_pressure;BME280_temperature;BME280_humidity;BME280_pressure;Samples;Min_cycle;Max_cycle;Signal;HPM_P1;HPM_P2
2021/12/11 00:02:06;;;;;;;105.90;48.00;;;5.80;99.90;;;;;;5023250;28;20033;-76
2021/12/11 00:04:37;;;;;;;122.78;48.80;;;5.80;99.90;;;;;;5020252;28;20121;-76
2021/12/11 00:07:06;;;;;;;137.13;51.25;;;5.80;99.90;;;;;;5022099;28;20025;-76
2021/12/11 00:09:38;;;;;;;100.35;44.90;;;5.80;99.90;;;;;;5020525;28;20034;-76
2021/12/11 00:12:08;;;;;;;109.30;48.50;;;5.80;99.90;;;;;;5020504;28;20382;-76
2021/12/11 00:14:38;;;;;;;107.45;46.38;;;5.80;99.90;;;;;;5019686;28;20474;-77
2021/12/11 00:17:04;;;;;;;109.40;46.78;;;5.80;99.90;;;;;;5023117;28;20028;-76
2021/12/11 00:19:33;;;;;;;111.32;47.03;;;5.70;99.90;;;;;;5021180;28;20080;-76
2021/12/11 00:22:22;;;;;;;118.75;48.28;;;5.70;99.90;;;;;;5014582;28;20039;-76
2021/12/11 00:24:49;;;;;;;114.30;49.72;;;5.60;99.90;;;;;;4994046;28;20429;-77
2021/12/11 00:27:22;;;;;;;129.68;50.95;;;5.70;99.90;;;;;;5014327;28;20022;-77
2021/12/11 00:29:49;;;;;;;125.25;48.33;;;5.70;99.90;;;;;;5017043;28;20040;-76
2021/12/11 00:32:24;;;;;;;107.78;48.08;;;5.70;99.90;;;;;;5018582;28;20045;-77
2021/12/11 00:34:53;;;;;;;110.50;48.05;;;5.80;99.90;;;;;;5035757;28;20057;-76
2021/12/11 00:37:22;;;;;;;111.20;48.40;;;5.80;99.90;;;;;;5035990;28;20026;-76
2021/12/11 00:40:22;;;;;;;132.55;49.97;;;5.70;99.90;;;;;;5035700;28;20501;-77
2021/12/11 00:42:50;;;;;;;114.65;44.97;;;5.70;99.90;;;;;;5035791;28;20025;-76
2021/12/11 00:45:20;;;;;;;131.82;48.60;;;5.80;99.90;;;;;;5035410;28;20025;-76
2021/12/11 00:48:08;;;;;;;112.55;46.85;;;5.70;99.90;;;;;;5025649;28;20039;-77
2021/12/11 00:50:43;;;;;;;106.30;44.83;;;5.70;99.90;;;;;;5015315;28;20026;-77
2021/12/11 00:53:19;;;;;;;124.20;48.60;;;5.60;99.90;;;;;;5015918;28;20033;-76
2021/12/11 00:55:51;;;;;;;124.32;47.28;;;5.60;99.90;;;;;;5016944;28;20026;-76
2021/12/11 00:58:25;;;;;;;128.88;47.75;;;5.70;99.90;;;;;;5024781;28;20018;-77
2021/12/11 01:01:24;;;;;;;111.90;43.72;;;5.70;99.90;;;;;;5035285;28;20073;-77
2021/12/11 01:04:06;;;;;;;113.07;47.33;;;5.70;99.90;;;;;;5015902;28;20038;-76
2021/12/11 01:06:39;;;;;;;107.15;46.58;;;5.70;99.90;;;;;;5035611;28;20033;-76
2021/12/11 01:09:14;;;;;;;105.28;43.33;;;5.70;99.90;;;;;;5034298;28;20017;-76
2021/12/11 01:11:43;;;;;;;97.55;42.47;;;5.60;99.90;;;;;;5035226;28;20026;-76
2021/12/11 01:14:28;;;;;;;114.60;46.80;;;5.60;99.90;;;;;;5032200;28;20466;-77
2021/12/11 01:17:21;;;;;;;102.80;44.50;;;5.60;99.90;;;;;;5014770;28;20084;-77
2021/12/11 01:19:54;;;;;;;90.07;39.53;;;5.60;99.90;;;;;;5014739;28;20026;-77
2021/12/11 01:22:36;;;;;;;87.97;39.65;;;5.60;99.90;;;;;;5014939;28;20080;-77
2021/12/11 01:25:24;;;;;;;107.05;41.05;;;5.50;99.90;;;;;;5029406;28;20018;-76
2021/12/11 01:27:54;;;;;;;94.70;40.92;;;5.50;99.90;;;;;;5034261;28;20489;-77
2021/12/11 01:30:31;;;;;;;100.85;42.10;;;5.50;99.90;;;;;;5033651;28;20037;-77
2021/12/11 01:32:57;;;;;;;101.00;41.67;;;5.50;99.90;;;;;;5033638;28;20021;-77
2021/12/11 01:35:24;;;;;;;123.43;47.88;;;5.50;99.90;;;;;;5034987;28;20033;-76
2021/12/11 01:37:58;;;;;;;98.18;43.20;;;5.40;99.90;;;;;;5034097;28;20018;-76
2021/12/11 01:40:27;;;;;;;96.22;41.90;;;5.40;99.90;;;;;;5031554;28;20049;-76
2021/12/11 01:42:53;;;;;;;91.68;41.50;;;5.30;99.90;;;;;;5034429;28;20026;-76
2021/12/11 01:45:19;;;;;;;99.40;41.83;;;5.30;99.90;;;;;;5034471;28;20033;-76
2021/12/11 01:47:46;;;;;;;110.75;45.45;;;5.30;99.90;;;;;;5034247;28;20549;-76
2021/12/11 01:50:39;;;;;;;89.63;39.80;;;5.40;99.90;;;;;;5030034;28;20502;-76
2021/12/11 01:53:10;;;;;;;100.47;41.90;;;5.30;99.90;;;;;;5013827;28;20017;-76
2021/12/11 01:55:53;;;;;;;99.10;39.75;;;5.30;99.90;;;;;;5018746;28;20426;-76
2021/12/11 01:58:36;;;;;;;88.53;39.38;;;5.30;99.90;;;;;;5014709;28;20034;-76
2021/12/11 02:01:13;;;;;;;87.20;38.47;;;5.20;99.90;;;;;;5014409;28;20111;-76
2021/12/11 02:03:40;;;;;;;97.45;41.53;;;5.20;99.90;;;;;;5021345;28;20024;-76
2021/12/11 02:06:07;;;;;;;92.57;41.92;;;5.20;99.90;;;;;;5033147;28;20025;-76
2021/12/11 02:08:35;;;;;;;123.53;44.53;;;5.30;99.90;;;;;;5034470;28;20275;-76
2021/12/11 02:11:09;;;;;;;88.65;38.72;;;5.20;99.90;;;;;;5033054;28;20087;-76
2021/12/11 02:13:43;;;;;;;90.32;39.40;;;5.30;99.90;;;;;;5033882;28;20032;-76
2021/12/11 02:16:44;;;;;;;85.00;39.30;;;5.20;99.90;;;;;;5028230;28;20068;-76
2021/12/11 02:19:16;;;;;;;93.72;42.10;;;5.20;99.90;;;;;;5034018;28;20030;-76
2021/12/11 02:21:49;;;;;;;94.35;40.72;;;5.20;99.90;;;;;;5016497;28;20034;-76
2021/12/11 02:24:20;;;;;;;104.55;42.00;;;5.20;99.90;;;;;;5031993;28;20021;-76
2021/12/11 02:26:46;;;;;;;104.05;40.63;;;5.30;99.90;;;;;;5033980;28;20029;-76
2021/12/11 02:29:17;;;;;;;118.28;45.17;;;5.20;99.90;;;;;;5033717;28;20496;-77
2021/12/11 02:32:06;;;;;;;161.10;51.85;;;5.20;99.90;;;;;;5033171;28;20029;-77
2021/12/11 02:34:40;;;;;;;142.85;48.58;;;5.30;99.90;;;;;;5021650;28;20508;-76
2021/12/11 02:37:05;;;;;;;160.38;51.72;;;5.30;99.90;;;;;;5013132;28;20021;-76
2021/12/11 02:39:43;;;;;;;118.95;45.38;;;5.30;99.90;;;;;;5013946;28;20449;-76
2021/12/11 02:42:27;;;;;;;120.40;44.60;;;5.30;99.90;;;;;;5017344;28;20021;-76
2021/12/11 02:45:07;;;;;;;123.80;47.08;;;5.30;99.90;;;;;;5033644;28;20057;-76
2021/12/11 02:47:40;;;;;;;163.32;54.70;;;5.30;99.90;;;;;;5033481;28;20029;-76
2021/12/11 02:50:30;;;;;;;176.38;54.67;;;5.30;99.90;;;;;;5032184;28;20036;-76
2021/12/11 02:53:16;;;;;;;134.70;43.83;;;5.30;99.90;;;;;;5033512;28;20029;-76
2021/12/11 02:55:57;;;;;;;118.03;42.95;;;5.30;99.90;;;;;;5033540;28;20036;-76
2021/12/11 02:58:27;;;;;;;133.73;45.50;;;5.30;99.90;;;;;;5013679;28;20026;-76
2021/12/11 03:01:05;;;;;;;115.45;45.15;;;5.40;99.90;;;;;;5013976;28;20091;-77
2021/12/11 03:03:39;;;;;;;125.65;46.45;;;5.30;99.90;;;;;;5015004;28;20037;-76
2021/12/11 03:06:14;;;;;;;116.30;43.13;;;5.40;99.90;;;;;;5033338;28;20026;-76
2021/12/11 03:08:41;;;;;;;112.82;43.13;;;5.40;99.90;;;;;;5030208;28;20026;-76
2021/12/11 03:11:12;;;;;;;128.00;45.58;;;5.40;99.90;;;;;;5033369;28;20029;-76
2021/12/11 03:13:40;;;;;;;130.13;47.23;;;5.40;99.90;;;;;;5033335;28;20040;-76
2021/12/11 03:16:08;;;;;;;131.70;47.20;;;5.40;99.90;;;;;;5025268;28;20292;-76
2021/12/11 03:18:34;;;;;;;120.95;44.33;;;5.50;99.90;;;;;;5012894;28;20021;-75
2021/12/11 03:21:00;;;;;;;104.93;41.25;;;5.50;99.90;;;;;;5012869;28;20038;-75
2021/12/11 03:23:25;;;;;;;112.78;44.97;;;5.50;99.90;;;;;;5011568;28;20437;-75
2021/12/11 03:25:51;;;;;;;100.93;43.92;;;5.50;99.90;;;;;;5012060;28;20026;-76
2021/12/11 03:28:20;;;;;;;110.85;38.72;;;5.50;99.90;;;;;;5013022;28;20026;-76
2021/12/11 03:30:57;;;;;;;118.60;40.70;;;5.50;99.90;;;;;;5014446;28;20022;-75
2021/12/11 03:33:25;;;;;;;102.22;38.30;;;5.50;99.90;;;;;;5031590;28;20018;-76
2021/12/11 03:35:51;;;;;;;89.78;38.17;;;5.50;99.90;;;;;;5031013;28;20044;-76
2021/12/11 03:38:17;;;;;;;107.82;40.22;;;5.50;99.90;;;;;;5032555;28;20018;-75
2021/12/11 03:40:44;;;;;;;147.32;46.10;;;5.50;99.90;;;;;;5032561;28;20042;-76
2021/12/11 03:43:13;;;;;;;120.65;45.42;;;5.60;99.90;;;;;;5032372;28;20029;-76
2021/12/11 03:45:41;;;;;;;152.68;47.80;;;5.50;99.90;;;;;;5033048;28;20025;-75
2021/12/11 03:48:14;;;;;;;130.52;45.53;;;5.60;99.90;;;;;;5032082;28;20025;-76
2021/12/11 03:50:41;;;;;;;131.85;43.80;;;5.60;99.90;;;;;;5026624;28;20404;-76
2021/12/11 03:53:07;;;;;;;136.32;44.47;;;5.50;99.90;;;;;;5028668;28;20026;-76
2021/12/11 03:55:39;;;;;;;285.80;62.88;;;5.40;99.90;;;;;;5032784;28;20032;-76
2021/12/11 03:58:07;;;;;;;131.07;47.10;;;5.40;99.90;;;;;;5017451;28;20501;-75
2021/12/11 04:00:49;;;;;;;211.48;51.42;;;5.40;99.90;;;;;;5011990;28;20037;-76
2021/12/11 04:03:20;;;;;;;138.68;48.60;;;5.30;99.90;;;;;;5016973;28;20022;-76
2021/12/11 04:05:47;;;;;;;124.28;46.33;;;5.30;99.90;;;;;;5017091;28;20072;-75
2021/12/11 04:08:17;;;;;;;113.45;41.67;;;5.40;99.90;;;;;;5016323;28;20129;-75
2021/12/11 04:10:43;;;;;;;132.30;46.83;;;5.50;99.90;;;;;;5017018;28;20045;-75
2021/12/11 04:13:10;;;;;;;101.93;39.92;;;5.50;99.90;;;;;;5016917;28;20083;-75
2021/12/11 04:15:37;;;;;;;98.00;39.83;;;5.60;99.90;;;;;;5017876;28;20037;-75
2021/12/11 04:18:05;;;;;;;139.00;46.42;;;5.60;99.90;;;;;;5016748;28;20029;-75
2021/12/11 04:20:31;;;;;;;100.70;41.55;;;5.60;99.90;;;;;;5016576;28;20501;-75
2021/12/11 04:22:57;;;;;;;102.63;41.58;;;5.60;99.90;;;;;;5016473;28;20025;-75
2021/12/11 04:25:26;;;;;;;97.57;40.15;;;5.70;99.90;;;;;;5033395;28;20037;-75
2021/12/11 04:27:54;;;;;;;108.45;42.33;;;5.60;99.90;;;;;;5017135;28;20053;-75
2021/12/11 04:30:23;;;;;;;105.65;41.72;;;5.70;99.90;;;;;;5015736;28;20053;-75
2021/12/11 04:32:51;;;;;;;105.97;41.25;;;5.70;99.90;;;;;;5015847;28;20037;-76
2021/12/11 04:35:18;;;;;;;111.82;41.47;;;5.70;99.90;;;;;;5016385;28;20108;-75
2021/12/11 04:37:45;;;;;;;123.53;44.58;;;5.80;99.90;;;;;;5015746;28;20030;-75
2021/12/11 04:40:21;;;;;;;123.82;44.05;;;5.70;99.90;;;;;;5016109;28;20398;-76
2021/12/11 04:42:56;;;;;;;120.97;45.20;;;5.70;99.90;;;;;;5027765;28;20029;-75
2021/12/11 04:45:34;;;;;;;118.55;44.88;;;5.60;99.90;;;;;;5035870;28;20017;-75
2021/12/11 04:48:15;;;;;;;100.75;40.88;;;5.70;99.90;;;;;;5036037;28;20024;-75
2021/12/11 04:50:51;;;;;;;116.57;43.33;;;5.70;99.90;;;;;;5035828;28;20014;-75
2021/12/11 04:53:51;;;;;;;97.22;40.10;;;5.70;99.90;;;;;;5035889;28;20025;-75
2021/12/11 04:56:35;;;;;;;88.57;38.00;;;5.70;99.90;;;;;;5033158;28;20037;-76
2021/12/11 05:10:10;;;;;;;131.88;48.47;;;5.80;99.90;;;;;;5032073;28;20038;-77
2021/12/11 05:12:36;;;;;;;84.93;36.50;;;5.80;99.90;;;;;;5035254;28;20025;-76
2021/12/11 05:15:06;;;;;;;94.07;38.08;;;5.80;99.90;;;;;;5035118;28;20079;-76
2021/12/11 05:17:32;;;;;;;94.03;39.25;;;5.90;99.90;;;;;;5024013;28;20025;-76
2021/12/11 05:19:58;;;;;;;83.82;36.97;;;5.90;99.90;;;;;;5016912;28;20041;-76
2021/12/11 05:22:24;;;;;;;108.47;41.10;;;5.90;99.90;;;;;;5055003;28;20029;-77
2021/12/11 05:24:53;;;;;;;82.32;35.47;;;5.90;99.90;;;;;;5054983;28;20029;-76
2021/12/11 05:27:20;;;;;;;110.25;40.53;;;5.90;99.90;;;;;;5019708;28;20540;-76
2021/12/11 05:29:46;;;;;;;101.88;41.13;;;5.90;99.90;;;;;;5015413;28;20076;-76
2021/12/11 05:32:14;;;;;;;117.15;42.95;;;5.80;99.90;;;;;;5024150;28;20029;-76
2021/12/11 05:34:41;;;;;;;96.55;42.15;;;5.80;99.90;;;;;;5034807;28;20029;-76
2021/12/11 05:37:07;;;;;;;82.20;35.95;;;5.90;99.90;;;;;;5028266;28;20022;-76
2021/12/11 05:39:32;;;;;;;89.35;38.25;;;5.90;99.90;;;;;;5014998;28;20045;-76
2021/12/11 05:41:58;;;;;;;143.07;44.58;;;6.00;99.90;;;;;;5017027;28;20034;-76
2021/12/11 05:44:24;;;;;;;101.18;38.65;;;6.00;99.90;;;;;;5034868;28;20026;-76
2021/12/11 05:46:52;;;;;;;107.10;40.65;;;5.90;99.90;;;;;;5034652;28;20031;-76
2021/12/11 05:49:18;;;;;;;78.55;36.75;;;5.90;99.90;;;;;;5050109;28;20418;-76
2021/12/11 05:51:46;;;;;;;85.95;37.78;;;6.00;99.90;;;;;;5033190;28;20014;-76
2021/12/11 05:54:23;;;;;;;94.95;38.85;;;6.00;99.90;;;;;;5015147;28;20033;-75
2021/12/11 05:56:56;;;;;;;127.07;43.35;;;6.00;99.90;;;;;;5014863;28;20022;-75
2021/12/11 05:59:23;;;;;;;109.50;40.42;;;6.00;99.90;;;;;;5029544;28;20150;-75
2021/12/11 06:02:14;;;;;;;124.40;44.80;;;6.00;99.90;;;;;;5034005;28;20033;-76
2021/12/11 06:04:42;;;;;;;97.47;37.35;;;6.00;99.90;;;;;;5033571;28;20151;-76
2021/12/11 06:07:10;;;;;;;84.97;37.90;;;6.00;99.90;;;;;;5034186;28;20040;-77
2021/12/11 06:09:38;;;;;;;117.10;43.63;;;6.10;99.90;;;;;;5034254;28;20025;-76
2021/12/11 06:12:08;;;;;;;94.10;38.70;;;6.10;99.90;;;;;;5033959;28;20096;-76
2021/12/11 06:14:35;;;;;;;96.18;40.13;;;6.00;99.90;;;;;;5034055;28;20029;-76
2021/12/11 06:17:05;;;;;;;111.93;41.58;;;6.10;99.90;;;;;;5033958;28;20022;-77
2021/12/11 06:19:31;;;;;;;124.47;42.47;;;6.10;99.90;;;;;;5033163;28;20053;-76
2021/12/11 06:21:57;;;;;;;86.10;37.90;;;6.00;99.90;;;;;;5034189;28;20072;-75
2021/12/11 06:24:25;;;;;;;115.18;40.20;;;6.00;99.90;;;;;;5032977;28;20124;-77
2021/12/11 06:26:52;;;;;;;94.45;39.85;;;6.10;99.90;;;;;;5018527;28;20112;-77
2021/12/11 06:29:18;;;;;;;92.30;39.90;;;6.10;99.90;;;;;;5014497;28;20041;-76
2021/12/11 06:31:44;;;;;;;114.32;41.00;;;6.10;99.90;;;;;;5014184;28;20513;-77
2021/12/11 06:34:11;;;;;;;102.35;41.65;;;6.10;99.90;;;;;;5014105;28;20026;-77
2021/12/11 06:36:38;;;;;;;89.90;38.17;;;6.10;99.90;;;;;;5014300;28;20072;-76
2021/12/11 06:39:07;;;;;;;98.20;39.40;;;6.10;99.90;;;;;;5030292;28;20018;-76
2021/12/11 06:41:36;;;;;;;88.95;37.55;;;6.10;99.90;;;;;;5018324;28;20030;-76
2021/12/11 06:44:03;;;;;;;96.40;40.75;;;6.10;99.90;;;;;;5032539;28;20100;-76
2021/12/11 06:46:31;;;;;;;191.13;52.47;;;6.10;99.90;;;;;;5033538;28;20025;-75
2021/12/11 06:48:57;;;;;;;118.32;43.00;;;6.10;99.90;;;;;;5032018;28;20493;-76
2021/12/11 06:51:23;;;;;;;113.47;43.03;;;6.00;99.90;;;;;;5033833;28;20052;-75
2021/12/11 06:53:53;;;;;;;157.88;50.78;;;6.00;99.90;;;;;;5032479;28;20444;-76
2021/12/11 06:56:21;;;;;;;164.27;50.83;;;6.00;99.90;;;;;;5033140;28;20026;-76
2021/12/11 06:58:48;;;;;;;139.27;48.05;;;6.00;99.90;;;;;;5033467;28;20038;-75
2021/12/11 07:01:14;;;;;;;134.48;47.30;;;6.10;99.90;;;;;;5032456;28;20029;-75
2021/12/11 07:03:41;;;;;;;117.45;46.80;;;6.00;99.90;;;;;;5032901;28;20485;-76
2021/12/11 07:06:08;;;;;;;151.70;53.75;;;6.10;99.90;;;;;;5033189;28;20025;-75
2021/12/11 07:08:37;;;;;;;176.10;57.40;;;6.00;99.90;;;;;;5033065;28;20022;-75
2021/12/11 07:11:03;;;;;;;274.50;69.72;;;6.10;99.90;;;;;;5032946;28;20052;-75
2021/12/11 07:13:29;;;;;;;139.98;53.53;;;6.00;99.90;;;;;;5032917;28;20108;-76
2021/12/11 07:15:56;;;;;;;219.77;63.75;;;6.10;99.90;;;;;;5033352;28;20422;-76
2021/12/11 07:18:24;;;;;;;138.25;50.67;;;6.10;99.90;;;;;;5031241;28;20107;-76
2021/12/11 07:20:50;;;;;;;147.45;52.15;;;6.10;99.90;;;;;;5032676;28;20048;-76
2021/12/11 07:23:16;;;;;;;139.38;50.53;;;6.10;99.90;;;;;;5032733;28;20100;-75
2021/12/11 07:25:58;;;;;;;208.18;56.50;;;6.10;99.90;;;;;;5029557;28;20026;-76
2021/12/11 07:28:25;;;;;;;172.52;57.58;;;6.10;99.90;;;;;;5013306;28;20072;-76
2021/12/11 07:30:53;;;;;;;209.38;61.85;;;6.10;99.90;;;;;;5013057;28;20080;-76
2021/12/11 07:33:19;;;;;;;188.48;59.17;;;6.10;99.90;;;;;;5013008;28;20029;-75
2021/12/11 07:35:47;;;;;;;145.52;55.33;;;6.10;99.90;;;;;;5013033;28;20430;-76
2021/12/11 07:38:14;;;;;;;133.95;50.63;;;6.10;99.90;;;;;;5029282;28;20476;-76
2021/12/11 07:40:54;;;;;;;153.52;52.53;;;6.10;99.90;;;;;;5032426;28;20037;-77
2021/12/11 07:43:22;;;;;;;159.95;55.42;;;6.10;99.90;;;;;;5032697;28;20040;-76
2021/12/11 07:45:48;;;;;;;155.10;52.53;;;6.10;99.90;;;;;;5032828;28;20036;-76
2021/12/11 07:48:14;;;;;;;199.68;58.85;;;6.10;99.90;;;;;;5016916;28;20377;-76
2021/12/11 07:50:40;;;;;;;148.55;54.28;;;6.10;99.90;;;;;;5013158;28;20030;-76
2021/12/11 07:53:06;;;;;;;154.30;50.88;;;6.10;99.90;;;;;;5013387;28;20033;-76
2021/12/11 07:55:35;;;;;;;163.68;54.50;;;6.00;99.90;;;;;;5013068;28;20026;-76
2021/12/11 07:58:02;;;;;;;148.27;50.72;;;6.10;99.90;;;;;;5032503;28;20452;-75
2021/12/11 08:00:29;;;;;;;158.18;53.53;;;6.00;99.90;;;;;;5029678;28;20474;-75
2021/12/11 08:02:55;;;;;;;155.20;55.50;;;6.10;99.90;;;;;;5031804;28;20032;-74
2021/12/11 08:05:26;;;;;;;129.40;48.70;;;6.10;99.90;;;;;;5031188;28;20025;-74
2021/12/11 08:07:52;;;;;;;119.10;43.33;;;6.10;99.90;;;;;;5033106;28;20033;-74
2021/12/11 08:10:21;;;;;;;115.90;43.97;;;6.10;99.90;;;;;;5039076;28;20033;-73
2021/12/11 08:12:48;;;;;;;113.82;44.33;;;6.00;99.90;;;;;;5013192;28;20117;-75
2021/12/11 08:15:16;;;;;;;106.72;39.15;;;6.10;99.90;;;;;;5012221;28;20061;-74
2021/12/11 08:17:42;;;;;;;118.43;38.60;;;6.00;99.90;;;;;;5038892;28;20052;-74
2021/12/11 08:20:11;;;;;;;106.60;38.35;;;6.10;99.90;;;;;;5020656;28;20151;-74
2021/12/11 08:22:38;;;;;;;95.70;36.72;;;6.10;99.90;;;;;;5022931;28;20022;-74
2021/12/11 08:25:06;;;;;;;95.60;36.22;;;6.10;99.90;;;;;;5022533;28;20168;-74
2021/12/11 08:27:32;;;;;;;95.70;37.60;;;6.10;99.90;;;;;;5020515;28;20018;-75
2021/12/11 08:29:57;;;;;;;87.30;34.97;;;6.20;99.90;;;;;;5015025;28;20030;-74
2021/12/11 08:32:25;;;;;;;95.60;34.35;;;6.20;99.90;;;;;;5012950;28;20557;-75
2021/12/11 08:34:52;;;;;;;78.63;32.40;;;6.20;99.90;;;;;;5012678;28;20045;-75
2021/12/11 08:37:20;;;;;;;84.38;30.98;;;6.20;99.90;;;;;;5012295;28;20025;-75
2021/12/11 08:39:46;;;;;;;100.38;33.72;;;6.30;99.90;;;;;;5012695;28;20034;-75
2021/12/11 08:42:16;;;;;;;102.20;36.42;;;6.40;99.90;;;;;;5027413;28;20025;-75
2021/12/11 08:44:50;;;;;;;87.13;32.55;;;6.40;99.90;;;;;;5036451;28;20032;-74
2021/12/11 08:47:17;;;;;;;81.38;29.00;;;6.40;99.90;;;;;;5029825;28;20057;-75
2021/12/11 08:49:43;;;;;;;73.13;28.10;;;6.40;99.90;;;;;;5032594;28;20079;-74
2021/12/11 08:52:16;;;;;;;62.50;25.77;;;6.40;99.90;;;;;;5031272;28;20397;-74
2021/12/11 08:54:42;;;;;;;68.85;25.50;;;6.40;99.90;;;;;;5030615;28;20022;-74
2021/12/11 08:57:11;;;;;;;76.80;23.20;;;6.50;99.90;;;;;;5024873;28;20105;-73
2021/12/11 08:59:40;;;;;;;66.00;22.83;;;6.50;99.90;;;;;;5031466;28;20033;-74
2021/12/11 09:02:20;;;;;;;57.65;19.92;;;6.50;99.90;;;;;;5033415;28;20025;-74
2021/12/11 09:05:00;;;;;;;60.25;20.35;;;6.50;99.90;;;;;;5030862;28;20014;-74
2021/12/11 09:07:37;;;;;;;57.15;17.73;;;6.50;99.90;;;;;;5028204;28;20018;-74
2021/12/11 09:10:12;;;;;;;52.75;15.43;;;6.50;99.90;;;;;;5036537;28;20112;-73
2021/12/11 09:12:52;;;;;;;39.10;15.02;;;6.50;99.90;;;;;;5032886;28;20021;-74
2021/12/11 09:15:31;;;;;;;43.03;13.45;;;6.60;99.90;;;;;;5038349;28;20104;-73
2021/12/11 09:18:05;;;;;;;51.15;13.85;;;6.60;99.90;;;;;;5038493;28;20048;-74
2021/12/11 09:20:37;;;;;;;40.13;12.05;;;6.70;99.90;;;;;;5044420;28;20255;-74
2021/12/11 09:23:18;;;;;;;41.53;13.30;;;6.70;99.90;;;;;;5023444;28;20026;-74
2021/12/11 09:25:54;;;;;;;29.08;11.40;;;6.70;99.90;;;;;;5022712;28;20045;-74
2021/12/11 09:28:35;;;;;;;40.38;12.02;;;6.70;99.90;;;;;;5024082;28;20087;-74
2021/12/11 09:31:16;;;;;;;37.97;11.77;;;6.70;99.90;;;;;;5026711;28;20033;-75
2021/12/11 09:33:51;;;;;;;39.65;10.70;;;6.60;99.90;;;;;;5030592;28;20073;-75
2021/12/11 09:36:22;;;;;;;36.67;12.18;;;6.70;99.90;;;;;;5041368;28;20044;-76
2021/12/11 09:38:54;;;;;;;39.90;11.77;;;6.70;99.90;;;;;;5028579;28;20040;-76
2021/12/11 09:41:24;;;;;;;45.00;11.43;;;6.70;99.90;;;;;;5027502;28;20315;-76
2021/12/11 09:44:07;;;;;;;37.97;10.85;;;6.70;99.90;;;;;;5028017;28;20025;-76
2021/12/11 09:46:43;;;;;;;37.95;13.00;;;6.90;99.90;;;;;;5028638;28;20025;-76
2021/12/11 09:49:19;;;;;;;30.98;11.30;;;6.90;99.90;;;;;;5027457;28;20065;-76
2021/12/11 09:51:51;;;;;;;26.83;11.32;;;7.00;99.90;;;;;;5030526;28;20462;-76
2021/12/11 09:54:26;;;;;;;41.10;15.93;;;7.10;99.90;;;;;;5026546;28;20040;-76
2021/12/11 09:57:07;;;;;;;43.90;12.85;;;7.10;99.90;;;;;;5027391;28;20029;-76
2021/12/11 09:59:35;;;;;;;39.67;11.93;;;7.10;99.90;;;;;;5027562;28;20125;-76
2021/12/11 10:02:06;;;;;;;36.25;11.88;;;7.10;99.90;;;;;;5027436;28;20037;-76
2021/12/11 10:04:39;;;;;;;40.08;11.82;;;7.20;99.90;;;;;;5039999;28;20049;-76
2021/12/11 10:09:41;;;;;;;31.23;10.93;;;7.30;99.90;;;;;;5028010;28;20034;-77
2021/12/11 10:12:20;;;;;;;36.97;10.98;;;7.30;99.90;;;;;;5025386;28;20541;-77
2021/12/11 10:14:47;;;;;;;37.78;11.07;;;7.30;99.90;;;;;;5024582;28;20025;-76
2021/12/11 10:17:21;;;;;;;34.30;12.07;;;7.30;99.90;;;;;;5024870;28;20025;-76
2021/12/11 10:19:49;;;;;;;34.22;11.35;;;7.30;99.90;;;;;;5028030;28;20522;-76
2021/12/11 10:22:22;;;;;;;41.50;10.45;;;7.40;99.90;;;;;;5024134;28;20041;-76
2021/12/11 10:24:49;;;;;;;39.85;10.70;;;7.40;99.90;;;;;;5024939;28;20022;-76
2021/12/11 10:27:19;;;;;;;32.42;10.45;;;7.40;99.90;;;;;;5024947;28;20025;-77
2021/12/11 10:29:46;;;;;;;24.95;10.57;;;7.40;99.90;;;;;;5048796;28;20017;-76
2021/12/11 10:32:29;;;;;;;27.75;10.07;;;7.50;99.90;;;;;;5039012;28;20107;-76
2021/12/11 10:35:00;;;;;;;26.02;10.27;;;7.50;99.90;;;;;;5034642;28;20069;-76
2021/12/11 10:37:36;;;;;;;32.00;10.50;;;7.50;99.90;;;;;;5025043;28;20493;-76
2021/12/11 10:40:14;;;;;;;31.20;12.07;;;7.60;99.90;;;;;;5025092;28;20037;-76
2021/12/11 10:42:42;;;;;;;30.25;11.00;;;7.60;99.90;;;;;;5020007;28;20033;-76
2021/12/11 10:45:11;;;;;;;26.67;10.15;;;7.50;99.90;;;;;;5023183;28;20045;-76
2021/12/11 10:47:42;;;;;;;36.15;11.45;;;7.60;99.90;;;;;;5031738;28;20030;-76
2021/12/11 10:50:26;;;;;;;32.65;10.80;;;7.50;99.90;;;;;;5044706;28;20032;-76
2021/12/11 10:52:53;;;;;;;27.42;10.15;;;7.60;99.90;;;;;;5040415;28;20021;-76
2021/12/11 10:55:24;;;;;;;28.70;9.40;;;7.70;99.90;;;;;;5030128;28;20030;-76
2021/12/11 10:57:56;;;;;;;21.98;9.10;;;7.70;99.90;;;;;;5031859;28;20036;-76
2021/12/11 11:00:34;;;;;;;27.45;8.98;;;7.70;99.90;;;;;;5023481;28;20367;-76
2021/12/11 11:03:00;;;;;;;30.30;9.65;;;7.80;99.90;;;;;;5038145;28;20033;-76
2021/12/11 11:05:28;;;;;;;29.77;9.77;;;7.80;99.90;;;;;;5035287;28;20478;-75
2021/12/11 11:07:54;;;;;;;29.90;10.02;;;7.90;99.90;;;;;;5043568;28;20075;-76
2021/12/11 11:10:27;;;;;;;25.70;9.68;;;7.90;99.90;;;;;;5020383;28;20516;-75
2021/12/11 11:12:57;;;;;;;29.42;9.70;;;7.90;99.90;;;;;;5026720;28;20017;-75
2021/12/11 11:15:25;;;;;;;30.88;10.02;;;7.90;99.90;;;;;;5026853;28;20053;-76
2021/12/11 11:17:51;;;;;;;29.85;10.27;;;7.90;99.90;;;;;;5019268;28;20032;-76
2021/12/11 11:20:22;;;;;;;30.65;11.20;;;7.90;99.90;;;;;;5044468;28;20026;-76
2021/12/11 11:22:48;;;;;;;41.33;11.88;;;7.90;99.90;;;;;;5026416;28;20393;-76
2021/12/11 11:25:25;;;;;;;28.70;11.68;;;8.00;99.90;;;;;;5024415;28;20021;-75
2021/12/11 11:27:57;;;;;;;26.15;12.10;;;8.00;99.90;;;;;;5027073;28;20275;-75
2021/12/11 11:30:28;;;;;;;32.40;12.63;;;8.00;99.90;;;;;;5022207;28;20057;-76
2021/12/11 11:32:55;;;;;;;26.55;12.10;;;8.00;99.90;;;;;;5017044;28;20671;-76
2021/12/11 11:35:26;;;;;;;34.13;14.35;;;8.00;99.90;;;;;;5059063;28;20445;-76
2021/12/11 11:37:54;;;;;;;29.85;12.85;;;8.00;99.90;;;;;;5022921;28;20429;-76
2021/12/11 11:40:30;;;;;;;27.20;12.82;;;8.00;99.90;;;;;;5026265;28;20043;-76
2021/12/11 11:42:57;;;;;;;30.83;13.68;;;8.00;99.90;;;;;;5032503;28;20032;-76
2021/12/11 11:45:24;;;;;;;31.25;14.00;;;8.10;99.90;;;;;;5048079;28;20032;-75
2021/12/11 11:47:50;;;;;;;40.80;13.57;;;8.20;99.90;;;;;;5035239;28;20587;-75
2021/12/11 11:50:20;;;;;;;27.67;15.45;;;8.20;99.90;;;;;;5044317;28;20006;-75
2021/12/11 11:52:46;;;;;;;27.58;13.88;;;8.30;99.90;;;;;;5030141;28;20033;-76
2021/12/11 11:55:17;;;;;;;27.52;14.27;;;8.20;99.90;;;;;;5046194;28;20087;-75
2021/12/11 11:57:48;;;;;;;28.43;15.07;;;8.30;99.90;;;;;;5033350;28;20547;-76
2021/12/11 12:00:22;;;;;;;28.77;14.57;;;8.20;99.90;;;;;;5042779;28;20030;-76
2021/12/11 12:02:48;;;;;;;27.30;15.48;;;8.20;99.90;;;;;;5015241;28;20018;-75
2021/12/11 12:05:14;;;;;;;42.35;17.05;;;8.10;99.90;;;;;;5034329;28;20048;-76
2021/12/11 12:07:41;;;;;;;31.42;16.58;;;8.20;99.90;;;;;;5040902;28;20088;-75
2021/12/11 12:10:24;;;;;;;30.83;15.43;;;8.20;99.90;;;;;;5037798;28;20025;-75
2021/12/11 12:12:49;;;;;;;34.10;14.75;;;8.20;99.90;;;;;;5027959;28;20029;-75
2021/12/11 12:15:22;;;;;;;32.53;18.25;;;8.10;99.90;;;;;;5025789;28;20021;-75
2021/12/11 12:17:48;;;;;;;33.60;17.33;;;8.20;99.90;;;;;;5027281;28;20009;-76
2021/12/11 12:20:16;;;;;;;33.20;17.35;;;8.20;99.90;;;;;;5026359;28;20036;-75
2021/12/11 12:22:45;;;;;;;37.15;18.58;;;8.20;99.90;;;;;;5038803;28;20026;-75
2021/12/11 12:25:11;;;;;;;33.00;19.10;;;8.30;99.90;;;;;;5039412;28;20021;-76
2021/12/11 12:27:38;;;;;;;32.70;17.05;;;8.30;99.90;;;;;;5030767;28;20038;-76
2021/12/11 12:30:25;;;;;;;35.67;16.73;;;8.40;99.90;;;;;;5032689;28;20014;-76
2021/12/11 12:32:54;;;;;;;33.10;16.65;;;8.40;99.90;;;;;;5035468;28;20091;-76
2021/12/11 12:35:21;;;;;;;33.10;16.65;;;8.40;99.90;;;;;;5038698;28;20026;-76
2021/12/11 12:37:48;;;;;;;37.40;16.73;;;8.50;99.90;;;;;;5040305;28;20458;-76
2021/12/11 12:40:26;;;;;;;38.17;16.30;;;8.40;99.90;;;;;;5037138;28;20668;-77
2021/12/11 12:42:55;;;;;;;37.35;16.45;;;8.50;99.90;;;;;;5041117;28;20029;-75
2021/12/11 12:45:33;;;;;;;40.80;15.93;;;8.50;99.90;;;;;;5043357;28;20026;-77
2021/12/11 12:48:05;;;;;;;35.92;16.23;;;8.50;99.90;;;;;;5039113;28;20033;-76
2021/12/11 12:50:48;;;;;;;31.15;13.60;;;8.50;99.90;;;;;;5042407;28;20028;-76
2021/12/11 12:53:15;;;;;;;;;;;8.50;99.90;;;;;;5042305;28;20041;-74
2021/12/11 12:56:02;;;;;;;30.58;14.80;;;8.50;99.90;;;;;;5040426;28;20380;-76
2021/12/11 12:58:35;;;;;;;30.45;14.13;;;8.50;99.90;;;;;;5039310;28;20036;-76
2021/12/11 13:01:38;;;;;;;30.70;15.52;;;8.50;99.90;;;;;;5046953;28;20053;-76
2021/12/11 13:04:07;;;;;;;36.45;15.55;;;8.50;99.90;;;;;;5038310;28;20041;-76
2021/12/11 13:06:38;;;;;;;28.15;14.38;;;8.40;99.90;;;;;;5045214;28;20389;-77
2021/12/11 13:09:09;;;;;;;38.70;13.63;;;8.30;99.90;;;;;;5038795;28;20021;-77